Hlavní strana
METAR-TAF:

METAR-TAF

Letiště :

San Andrés, Kolumbie

zeměpisná šířka: 12-35N, zeměpisná délka: 081-43W, výška: 1 m

Aktuální stav počasí

Zpráva byla vytvořena před 1 hodinou a 2 minutami, v 09:00 UTC
Východní vítr 4 kt, proměnlivý mezi severovýchodním a východojihovýchodním
Teplota 28°C
Vlhkost vzduchu 84%
Tlak 1011 hPa
Viditelnost 10 km a více
Skoro jasno ve výšce 1600 ft
Polojasno ve výšce 20000 ft

METAR: SKSP 300900Z 08004KT 040V120 9999 FEW016 SCT200 28/25 A2985

Čas: 05:02 (10:02 UTC)

Předpověď počasí

Zpráva byla vytvořena před 5 hodinami a 32 minutami, v 04:30 UTC
Předpověď platná od 30 v 06 UTC do 31 v 06 UTC
Východní vítr 8 kt
Viditelnost 10 km a více
Polojasno ve výšce 1600 ft
Oblačno až skoro zataženo ve výšce 9000 ft
Dočasný
od 30 v 08 UTC do 30 v 13 UTC
Viditelnost: 5000 m
Polojasno ve výšce 1700 ft, Cumulonimbus.
Polojasno ve výšce 2000 ft
bouřka, déšť

TAF: SKSP 300430Z 3006/3106 08008KT 9999 SCT016 BKN090 TEMPO 3008/3013 5000 TSRA SCT017CB SCT020 TX31/3019Z TN26/3010Z

Stav a předpovědi počasí z více než 4 000 letišť (zprávy METAR a TAF).

Červené a žluté tečky na mapě představují dostupné meteorologické stanice.

Když kurzor umístíte na tečku, zobrazí se název stanice.

Pak kliknutím zobrazíte stav a předpověď počasí.

Chcete-li změnit mapu, kliknutím na zelené tlačítko se znaménkem +mapu přiblížíte, kliknutím na zelené tlačítko se znaménkem – mapu oddálíte a kliknutím na zelené šipky přejdete na sousední mapy.


METAR-TAF: